Time;durP1;ratioP1;P1;durP2;ratioP2;P2;SDS_P1;SDS_P2;PMS_P1;PMS_P2;Temp;Humidity;BMP_temperature;BMP_pressure;BME280_temperature;BME280_humidity;BME280_pressure;Samples;Min_cycle;Max_cycle;Signal;HPM_P1;HPM_P2
2023/02/22 00:01:01;;;;;;;441.25;61.03;;;7.60;1.00;;;;;;6246968;23;20209;-84
2023/02/22 00:03:31;;;;;;;287.55;57.40;;;7.60;1.00;;;;;;6246350;22;20176;-85
2023/02/22 00:06:04;;;;;;;368.52;57.08;;;7.60;1.00;;;;;;6246518;22;20252;-85
2023/02/22 00:08:36;;;;;;;375.40;55.65;;;7.60;1.00;;;;;;6247834;22;20149;-85
2023/02/22 00:11:07;;;;;;;427.33;62.17;;;7.60;1.00;;;;;;6245778;22;20220;-85
2023/02/22 00:13:36;;;;;;;354.45;55.97;;;7.60;1.00;;;;;;6245747;22;20189;-85
2023/02/22 00:16:02;;;;;;;357.02;55.92;;;7.60;1.00;;;;;;6243520;22;20149;-85
2023/02/22 00:18:33;;;;;;;371.15;56.17;;;7.60;1.00;;;;;;6244271;23;20494;-85
2023/02/22 00:20:59;;;;;;;468.75;62.67;;;7.60;1.00;;;;;;6243354;23;20211;-85
2023/02/22 00:23:28;;;;;;;483.88;62.28;;;7.60;1.00;;;;;;6245506;23;20224;-85
2023/02/22 00:25:55;;;;;;;473.08;62.50;;;7.60;1.00;;;;;;6244588;23;20612;-85
2023/02/22 00:28:22;;;;;;;370.30;55.15;;;7.60;1.00;;;;;;6243660;22;20149;-85
2023/02/22 00:30:49;;;;;;;446.85;62.20;;;7.60;1.00;;;;;;6244590;22;20227;-85
2023/02/22 00:33:15;;;;;;;480.13;63.08;;;7.60;1.00;;;;;;6242929;22;20188;-85
2023/02/22 00:35:44;;;;;;;367.48;54.75;;;7.50;1.00;;;;;;6242959;23;20157;-84
2023/02/22 00:38:11;;;;;;;373.70;55.47;;;7.50;1.00;;;;;;6246060;22;20205;-86
2023/02/22 00:40:46;;;;;;;350.58;55.63;;;7.50;1.00;;;;;;6245525;22;20466;-85
2023/02/22 00:43:13;;;;;;;399.17;59.83;;;7.50;1.00;;;;;;6247312;22;20175;-85
2023/02/22 00:45:38;;;;;;;362.80;56.42;;;7.50;1.00;;;;;;6245072;22;20156;-85
2023/02/22 00:48:07;;;;;;;402.40;57.17;;;7.50;1.00;;;;;;6270891;22;20153;-85
2023/02/22 00:50:34;;;;;;;345.85;55.00;;;7.40;1.00;;;;;;6244791;23;20267;-85
2023/02/22 00:53:02;;;;;;;423.80;57.30;;;7.40;1.00;;;;;;6247499;22;20173;-85
2023/02/22 00:55:34;;;;;;;337.50;56.38;;;7.40;1.00;;;;;;6246366;22;20161;-85
2023/02/22 00:58:01;;;;;;;330.90;53.15;;;7.40;1.00;;;;;;6246773;22;20516;-86
2023/02/22 01:00:28;;;;;;;296.05;52.80;;;7.40;1.00;;;;;;6243100;23;20162;-85
2023/02/22 01:02:55;;;;;;;288.17;55.95;;;7.50;1.00;;;;;;6246286;22;20156;-85
2023/02/22 01:05:28;;;;;;;325.00;55.00;;;7.50;1.00;;;;;;6244347;23;20176;-86
2023/02/22 01:07:56;;;;;;;350.25;57.20;;;7.40;1.00;;;;;;6246684;22;20159;-85
2023/02/22 01:10:24;;;;;;;305.67;54.45;;;7.50;1.00;;;;;;6246436;22;20183;-85
2023/02/22 01:12:50;;;;;;;360.77;57.75;;;7.50;1.00;;;;;;6246577;22;20505;-85
2023/02/22 01:15:22;;;;;;;328.63;57.35;;;7.50;1.00;;;;;;6244982;22;20495;-85
2023/02/22 01:17:52;;;;;;;358.55;57.22;;;7.50;1.00;;;;;;6245514;22;20145;-84
2023/02/22 01:20:18;;;;;;;415.92;63.92;;;7.50;1.00;;;;;;6246042;22;20176;-85
2023/02/22 01:22:52;;;;;;;390.90;57.60;;;7.50;1.00;;;;;;6243624;23;20157;-85
2023/02/22 01:25:20;;;;;;;354.05;60.42;;;7.50;1.00;;;;;;6247813;22;20620;-85
2023/02/22 01:27:47;;;;;;;385.52;61.80;;;7.60;1.00;;;;;;6246949;23;20161;-85
2023/02/22 01:30:13;;;;;;;329.85;59.85;;;7.50;1.00;;;;;;6249070;22;20628;-85
2023/02/22 01:32:41;;;;;;;321.98;59.65;;;7.50;1.00;;;;;;6248434;22;20633;-85
2023/02/22 01:35:23;;;;;;;343.48;58.30;;;7.50;1.00;;;;;;6247343;22;20197;-85
2023/02/22 01:37:51;;;;;;;390.30;63.60;;;7.50;1.00;;;;;;6249378;22;20602;-85
2023/02/22 01:40:38;;;;;;;366.83;60.28;;;7.50;1.00;;;;;;6248279;22;20145;-85
2023/02/22 01:43:25;;;;;;;355.80;60.28;;;7.50;1.00;;;;;;6249992;22;20141;-85
2023/02/22 01:45:54;;;;;;;377.08;62.03;;;7.40;1.00;;;;;;6251377;22;20161;-85
2023/02/22 01:48:43;;;;;;;348.15;58.47;;;7.40;1.00;;;;;;6274281;22;20164;-85
2023/02/22 01:51:36;;;;;;;295.90;53.85;;;7.40;1.00;;;;;;6250738;22;20151;-85
2023/02/22 01:54:39;;;;;;;342.67;60.65;;;7.30;1.00;;;;;;6243165;22;20203;-85
2023/02/22 01:57:07;;;;;;;357.05;57.53;;;7.30;1.00;;;;;;6250327;22;20170;-85
2023/02/22 01:59:45;;;;;;;298.85;59.17;;;7.30;1.00;;;;;;6250581;23;20616;-85
2023/02/22 02:02:17;;;;;;;343.77;60.15;;;7.30;1.00;;;;;;6251109;22;20208;-84
2023/02/22 02:04:44;;;;;;;343.58;58.83;;;7.30;1.00;;;;;;6251148;22;20188;-85
2023/02/22 02:07:13;;;;;;;296.70;55.17;;;7.30;1.00;;;;;;6250926;22;20149;-85
2023/02/22 02:09:58;;;;;;;283.13;55.70;;;7.30;1.00;;;;;;6249310;22;20157;-85
2023/02/22 02:12:26;;;;;;;343.30;56.15;;;7.30;1.00;;;;;;6250355;22;20538;-85
2023/02/22 02:14:51;;;;;;;271.27;54.13;;;7.30;1.00;;;;;;6249141;22;20237;-85
2023/02/22 02:17:20;;;;;;;284.13;54.23;;;7.40;1.00;;;;;;6252103;23;20149;-86
2023/02/22 02:19:45;;;;;;;333.02;54.53;;;7.30;1.00;;;;;;6254358;22;20156;-85
2023/02/22 02:22:31;;;;;;;300.37;52.63;;;7.30;1.00;;;;;;6262655;23;20148;-85
2023/02/22 02:25:16;;;;;;;293.52;52.67;;;7.30;1.00;;;;;;6286487;22;20244;-85
2023/02/22 02:28:06;;;;;;;276.52;53.00;;;7.30;1.00;;;;;;6284084;22;20155;-85
2023/02/22 02:30:37;;;;;;;269.52;52.45;;;7.40;1.00;;;;;;6262900;22;20168;-87
2023/02/22 02:33:26;;;;;;;252.43;50.22;;;7.50;1.00;;;;;;6268576;23;20172;-86
2023/02/22 02:36:22;;;;;;;248.40;50.65;;;7.50;1.00;;;;;;6282660;22;20145;-85
2023/02/22 02:39:00;;;;;;;236.60;48.38;;;7.50;1.00;;;;;;6250805;22;20248;-85
2023/02/22 02:41:35;;;;;;;218.32;49.63;;;7.60;1.00;;;;;;6249028;22;20528;-85
2023/02/22 02:44:08;;;;;;;251.95;48.65;;;7.60;1.00;;;;;;6250470;22;20230;-85
2023/02/22 02:46:45;;;;;;;232.65;49.17;;;7.60;1.00;;;;;;6249566;22;20149;-85
2023/02/22 02:49:15;;;;;;;204.30;45.58;;;7.60;1.00;;;;;;6249325;22;20505;-85
2023/02/22 02:51:46;;;;;;;258.95;44.20;;;7.60;1.00;;;;;;6251210;22;20527;-86
2023/02/22 02:54:13;;;;;;;189.57;43.00;;;7.60;1.00;;;;;;6249454;22;20181;-85
2023/02/22 02:56:41;;;;;;;172.80;42.78;;;7.50;1.00;;;;;;6250024;22;20165;-85
2023/02/22 02:59:42;;;;;;;161.63;42.83;;;7.50;1.00;;;;;;6248723;22;20149;-84
2023/02/22 03:02:42;;;;;;;163.98;42.38;;;7.50;1.00;;;;;;6186965;23;20154;-85
2023/02/22 03:05:10;;;;;;;150.13;38.40;;;7.50;1.00;;;;;;6251267;22;20260;-86
2023/02/22 03:08:16;;;;;;;181.23;39.50;;;7.50;1.00;;;;;;6250689;23;20608;-86
2023/02/22 03:11:16;;;;;;;160.50;37.45;;;7.50;1.00;;;;;;6250756;23;20600;-85
2023/02/22 03:13:58;;;;;;;152.50;38.15;;;7.60;1.00;;;;;;6215927;22;20193;-84
2023/02/22 03:16:49;;;;;;;142.68;35.92;;;7.60;1.00;;;;;;6275534;22;20756;-85
2023/02/22 03:19:33;;;;;;;132.73;34.55;;;7.60;1.00;;;;;;6250973;22;20134;-85
2023/02/22 03:22:04;;;;;;;163.75;31.23;;;7.60;1.00;;;;;;6274136;22;20171;-85
2023/02/22 03:24:51;;;;;;;125.95;33.50;;;7.50;1.00;;;;;;6250505;22;20170;-85
2023/02/22 03:27:33;;;;;;;118.45;26.98;;;7.50;1.00;;;;;;6274118;22;20276;-85
2023/02/22 03:30:06;;;;;;;110.88;28.85;;;7.40;1.00;;;;;;6249889;22;20391;-84
2023/02/22 03:32:36;;;;;;;111.90;29.35;;;7.40;1.00;;;;;;6249075;22;20320;-85
2023/02/22 03:35:07;;;;;;;155.80;32.28;;;7.40;1.00;;;;;;6249125;23;20200;-85
2023/02/22 03:37:37;;;;;;;121.25;30.58;;;7.40;1.00;;;;;;6248598;22;20153;-85
2023/02/22 03:40:17;;;;;;;105.38;29.98;;;7.40;1.00;;;;;;6251111;22;20486;-85
2023/02/22 03:42:47;;;;;;;91.60;28.75;;;7.40;1.00;;;;;;6250352;22;20142;-85
2023/02/22 03:45:16;;;;;;;108.43;26.02;;;7.40;1.00;;;;;;6274107;22;20161;-84
2023/02/22 03:47:57;;;;;;;107.35;28.45;;;7.30;1.00;;;;;;6251172;22;20177;-85
2023/02/22 03:50:28;;;;;;;137.48;29.58;;;7.30;1.00;;;;;;6249991;22;20167;-84
2023/02/22 03:52:57;;;;;;;133.45;30.20;;;7.30;1.00;;;;;;6249168;22;20263;-84
2023/02/22 03:55:24;;;;;;;134.73;28.60;;;7.30;1.00;;;;;;6247724;22;20189;-85
2023/02/22 03:57:55;;;;;;;106.72;27.95;;;7.30;1.00;;;;;;6249958;23;20153;-85
2023/02/22 04:00:25;;;;;;;78.18;25.92;;;7.30;1.00;;;;;;6249105;22;20160;-85
2023/02/22 04:02:53;;;;;;;70.13;23.92;;;7.30;1.00;;;;;;6250305;22;20149;-85
2023/02/22 04:05:19;;;;;;;91.95;26.55;;;7.20;1.00;;;;;;6249207;23;20156;-85
2023/02/22 04:07:45;;;;;;;80.85;26.52;;;7.20;1.00;;;;;;6248994;22;20160;-85
2023/02/22 04:10:12;;;;;;;83.83;25.10;;;7.20;1.00;;;;;;6273679;22;20161;-85
2023/02/22 04:12:38;;;;;;;99.95;26.63;;;7.20;1.00;;;;;;6246821;22;20176;-85
2023/02/22 04:15:05;;;;;;;111.00;26.53;;;7.20;1.00;;;;;;6273628;22;20629;-85
2023/02/22 04:17:33;;;;;;;107.60;30.08;;;7.30;1.00;;;;;;6247678;22;20153;-85
2023/02/22 04:20:02;;;;;;;103.75;35.53;;;7.30;1.00;;;;;;6249676;22;20156;-84
2023/02/22 04:22:28;;;;;;;116.18;28.25;;;7.30;1.00;;;;;;6246539;23;20188;-86
2023/02/22 04:24:53;;;;;;;130.87;27.80;;;7.30;1.00;;;;;;6248734;23;20169;-85
2023/02/22 04:27:19;;;;;;;116.93;28.63;;;7.20;1.00;;;;;;6246405;23;20156;-85
2023/02/22 04:29:45;;;;;;;173.90;33.47;;;7.10;1.00;;;;;;6249318;23;20182;-85
2023/02/22 04:32:12;;;;;;;168.07;51.60;;;7.00;1.00;;;;;;6248896;23;20207;-85
2023/02/22 04:34:38;;;;;;;130.63;43.90;;;6.90;1.00;;;;;;6249368;22;20730;-85
2023/02/22 04:37:03;;;;;;;149.67;34.03;;;6.90;1.00;;;;;;6248810;23;20149;-86
2023/02/22 04:39:29;;;;;;;120.07;31.43;;;6.90;1.00;;;;;;6247696;23;20214;-85
2023/02/22 04:41:57;;;;;;;116.63;28.50;;;6.90;1.00;;;;;;6248228;23;20168;-85
2023/02/22 04:44:22;;;;;;;165.40;51.50;;;6.90;1.00;;;;;;6246717;23;20224;-85
2023/02/22 04:46:48;;;;;;;181.57;34.97;;;6.80;1.00;;;;;;6248148;23;20163;-85
2023/02/22 04:49:15;;;;;;;154.13;33.63;;;6.80;1.00;;;;;;6248249;23;20539;-85
2023/02/22 04:51:41;;;;;;;136.27;32.10;;;6.70;1.00;;;;;;6249685;22;20279;-85
2023/02/22 04:54:09;;;;;;;165.90;37.33;;;6.70;1.00;;;;;;6249613;23;20185;-85
2023/02/22 04:56:35;;;;;;;135.27;30.25;;;6.70;1.00;;;;;;6273386;22;20176;-85
2023/02/22 04:59:00;;;;;;;159.00;32.70;;;6.60;1.00;;;;;;6271671;22;20161;-85
2023/02/22 05:01:32;;;;;;;134.17;32.30;;;6.60;1.00;;;;;;6273038;22;20201;-85
2023/02/22 05:03:58;;;;;;;124.25;31.50;;;6.50;1.00;;;;;;6248992;22;20506;-85
2023/02/22 05:06:25;;;;;;;138.57;33.87;;;6.60;1.00;;;;;;6248154;22;20160;-85
2023/02/22 05:08:53;;;;;;;126.32;29.20;;;6.60;1.00;;;;;;6248888;22;20199;-84
2023/02/22 05:11:19;;;;;;;117.05;35.92;;;6.50;1.00;;;;;;6248378;23;20152;-85
2023/02/22 05:13:44;;;;;;;104.30;26.97;;;6.50;1.00;;;;;;6250198;23;20700;-85
2023/02/22 05:16:10;;;;;;;119.57;30.10;;;6.40;1.00;;;;;;6271088;22;20236;-85
2023/02/22 05:18:35;;;;;;;116.43;29.33;;;6.40;1.00;;;;;;6249311;23;20278;-85
2023/02/22 05:21:01;;;;;;;108.00;29.47;;;6.30;1.00;;;;;;6249871;23;20279;-86
2023/02/22 05:23:26;;;;;;;105.87;33.00;;;6.30;1.00;;;;;;6251000;23;20175;-85
2023/02/22 05:25:55;;;;;;;133.67;32.60;;;6.30;1.00;;;;;;6251053;23;20172;-85
2023/02/22 05:28:20;;;;;;;124.05;31.58;;;6.30;1.00;;;;;;6251347;22;20228;-85
2023/02/22 05:30:46;;;;;;;109.83;28.00;;;6.30;1.00;;;;;;6276411;22;20615;-85
2023/02/22 05:33:11;;;;;;;139.23;33.97;;;6.30;1.00;;;;;;6249717;23;20603;-85
2023/02/22 05:35:37;;;;;;;99.87;29.57;;;6.30;1.00;;;;;;6251047;22;20180;-85
2023/02/22 05:38:06;;;;;;;90.57;27.40;;;6.30;1.00;;;;;;6250336;23;20184;-84
2023/02/22 05:40:34;;;;;;;96.40;27.98;;;6.20;1.00;;;;;;6252480;22;20156;-85
2023/02/22 05:43:02;;;;;;;94.93;28.48;;;6.20;1.00;;;;;;6249510;23;20183;-84
2023/02/22 05:45:31;;;;;;;76.75;24.20;;;6.10;1.00;;;;;;6276864;22;20164;-84
2023/02/22 05:47:57;;;;;;;79.40;23.20;;;6.00;1.00;;;;;;6250597;23;20211;-84
2023/02/22 05:50:26;;;;;;;54.10;21.43;;;6.00;1.00;;;;;;6249924;23;20805;-84
2023/02/22 05:52:52;;;;;;;65.88;22.55;;;6.00;1.00;;;;;;6251535;22;20514;-84
2023/02/22 05:55:20;;;;;;;67.47;21.58;;;5.90;1.00;;;;;;6249437;22;20929;-85
2023/02/22 05:57:46;;;;;;;94.93;34.95;;;5.90;1.00;;;;;;6250947;23;20158;-84
2023/02/22 06:00:27;;;;;;;82.70;28.53;;;5.80;1.00;;;;;;6252916;23;20179;-85
2023/02/22 06:03:13;;;;;;;97.70;39.45;;;5.80;1.00;;;;;;6253169;23;20183;-85
2023/02/22 06:05:39;;;;;;;94.05;35.35;;;5.80;1.00;;;;;;6269827;22;20157;-85
2023/02/22 06:08:06;;;;;;;54.43;20.30;;;5.80;1.00;;;;;;6267480;22;20184;-84
2023/02/22 06:10:32;;;;;;;72.18;20.77;;;5.90;1.00;;;;;;6250557;22;20376;-84
2023/02/22 06:13:01;;;;;;;71.43;20.83;;;5.90;1.00;;;;;;6247035;22;20172;-84
2023/02/22 06:15:28;;;;;;;67.88;23.58;;;5.80;1.00;;;;;;6249618;22;20145;-84
2023/02/22 06:17:57;;;;;;;72.78;22.95;;;5.80;1.00;;;;;;6274790;22;20163;-84
2023/02/22 06:20:25;;;;;;;87.10;24.92;;;5.70;1.00;;;;;;6249992;22;20522;-84
2023/02/22 06:22:56;;;;;;;91.80;25.90;;;5.70;1.00;;;;;;6248170;22;20172;-84
2023/02/22 06:25:24;;;;;;;113.65;26.77;;;5.70;1.00;;;;;;6247783;23;20145;-84
2023/02/22 06:27:50;;;;;;;87.07;26.65;;;5.70;1.00;;;;;;6247746;23;20161;-84
2023/02/22 06:30:18;;;;;;;63.40;24.00;;;5.70;1.00;;;;;;6248908;23;20160;-84
2023/02/22 06:32:43;;;;;;;60.53;23.45;;;5.70;1.00;;;;;;6273099;22;20165;-86
2023/02/22 06:35:14;;;;;;;63.70;26.57;;;5.70;1.00;;;;;;6273245;22;20180;-84
2023/02/22 06:37:39;;;;;;;46.90;22.13;;;5.60;1.00;;;;;;6250532;22;20470;-83
2023/02/22 06:40:05;;;;;;;58.83;24.13;;;5.60;1.00;;;;;;6248157;23;20160;-84
2023/02/22 06:42:33;;;;;;;48.17;23.97;;;5.60;1.00;;;;;;6249740;22;20153;-84
2023/02/22 06:44:59;;;;;;;46.03;21.77;;;5.60;1.00;;;;;;6273021;22;20450;-84
2023/02/22 06:47:25;;;;;;;51.10;24.53;;;5.60;1.00;;;;;;6248687;22;20536;-85
2023/02/22 06:49:54;;;;;;;49.30;22.17;;;5.60;1.00;;;;;;6248044;23;20149;-85
2023/02/22 06:52:20;;;;;;;52.08;24.23;;;5.60;1.00;;;;;;6249198;22;20160;-83
2023/02/22 06:54:45;;;;;;;46.33;23.90;;;5.60;1.00;;;;;;6256170;22;20196;-84
2023/02/22 06:57:11;;;;;;;56.10;24.37;;;5.60;1.00;;;;;;6280277;22;20496;-84
2023/02/22 06:59:36;;;;;;;46.73;23.80;;;5.60;1.00;;;;;;6255195;23;20223;-85
2023/02/22 07:02:15;;;;;;;;;;;;;;;;;;;;;
2023/02/22 07:04:41;;;;;;;39.13;18.48;;;5.70;1.00;;;;;;6245726;23;20244;-85
2023/02/22 07:07:07;;;;;;;39.87;20.40;;;5.80;1.00;;;;;;6245726;23;20180;-84
2023/02/22 07:09:35;;;;;;;30.10;17.83;;;5.90;1.00;;;;;;6245673;23;20163;-85
2023/02/22 07:12:02;;;;;;;39.67;20.02;;;6.00;1.00;;;;;;6245609;23;20203;-85
2023/02/22 07:14:31;;;;;;;32.92;18.30;;;6.10;1.00;;;;;;6244098;22;20196;-85
2023/02/22 07:16:59;;;;;;;39.65;19.48;;;6.20;1.00;;;;;;6244208;22;20149;-85
2023/02/22 07:19:24;;;;;;;31.38;17.88;;;6.30;1.00;;;;;;6267136;22;20157;-85
2023/02/22 07:21:55;;;;;;;35.70;18.80;;;6.40;1.00;;;;;;6245934;23;20156;-84
2023/02/22 07:24:25;;;;;;;32.50;17.80;;;6.50;1.00;;;;;;6245216;22;20488;-85
2023/02/22 07:26:50;;;;;;;28.77;17.55;;;6.60;1.00;;;;;;6269297;22;20161;-85
2023/02/22 07:29:21;;;;;;;29.67;18.90;;;6.70;1.00;;;;;;6244531;23;20492;-85
2023/02/22 07:31:47;;;;;;;26.63;17.38;;;6.90;1.00;;;;;;6241980;23;20153;-86
2023/02/22 07:34:13;;;;;;;24.88;15.80;;;7.20;1.00;;;;;;6267461;22;20279;-86
2023/02/22 07:36:41;;;;;;;28.73;15.53;;;7.50;1.00;;;;;;6241130;23;20181;-85
2023/02/22 07:39:09;;;;;;;20.58;14.30;;;8.00;1.00;;;;;;6245739;23;20878;-85
2023/02/22 07:41:37;;;;;;;22.17;16.20;;;8.40;99.90;;;;;;6276869;22;20209;-84
2023/02/22 07:44:03;;;;;;;19.60;13.53;;;8.80;1.00;;;;;;6278590;22;20555;-83
2023/02/22 07:46:28;;;;;;;18.90;13.77;;;9.10;99.90;;;;;;6253147;22;20380;-84
2023/02/22 07:48:57;;;;;;;20.60;14.63;;;9.40;99.90;;;;;;6279112;22;20165;-84
2023/02/22 07:51:22;;;;;;;20.40;13.70;;;9.80;1.00;;;;;;6276857;22;20153;-83
2023/02/22 07:53:48;;;;;;;21.93;14.93;;;10.30;1.00;;;;;;6250561;22;20485;-84
2023/02/22 07:56:28;;;;;;;20.00;14.30;;;10.70;1.00;;;;;;6250355;22;20480;-87
2023/02/22 07:59:00;;;;;;;21.43;14.30;;;11.20;99.90;;;;;;6252217;23;20145;-84
2023/02/22 08:04:34;;;;;;;;;;;;;;;;;;;;;
2023/02/22 08:07:30;;;;;;;18.00;12.43;;;11.50;1.00;;;;;;6255540;23;20372;-85
2023/02/22 08:10:15;;;;;;;;;;;;;;;;;;;;;
2023/02/22 08:13:07;;;;;;;21.87;15.70;;;11.40;99.90;;;;;;6254482;23;20380;-86
2023/02/22 08:16:02;;;;;;;18.77;12.83;;;11.50;99.90;;;;;;6251417;22;20402;-84
2023/02/22 08:18:37;;;;;;;;;;;;;;;;;;;;;
2023/02/22 08:22:02;;;;;;;;;;;;;;;;;;;;;
2023/02/22 08:25:10;;;;;;;16.90;12.80;;;12.00;4.00;;;;;;6240681;22;20435;-85
2023/02/22 08:27:57;;;;;;;16.20;12.47;;;12.20;1.00;;;;;;6241979;22;20383;-85
2023/02/22 08:30:23;;;;;;;15.83;12.10;;;12.20;1.00;;;;;;6239214;22;20387;-85
2023/02/22 08:32:52;;;;;;;17.57;12.07;;;12.30;1.00;;;;;;6270039;22;20839;-85
2023/02/22 08:35:26;;;;;;;16.73;12.60;;;12.40;1.00;;;;;;6244440;22;20380;-85
2023/02/22 08:38:06;;;;;;;19.27;12.27;;;12.60;1.00;;;;;;6245828;23;20706;-85
2023/02/22 08:40:36;;;;;;;17.73;12.00;;;12.80;1.00;;;;;;6245509;22;20380;-86
2023/02/22 08:46:00;;;;;;;14.43;11.70;;;13.40;1.00;;;;;;6251142;22;20383;-85
2023/02/22 08:48:28;;;;;;;12.90;10.20;;;14.20;1.00;;;;;;6243934;23;20410;-86
2023/02/22 08:50:56;;;;;;;13.70;10.93;;;14.80;99.90;;;;;;6242761;23;20387;-85
2023/02/22 08:53:32;;;;;;;;;;;;;;;;;;;;;
2023/02/22 08:56:05;;;;;;;13.60;10.93;;;16.00;99.90;;;;;;6243700;23;20478;-85
2023/02/22 08:58:31;;;;;;;11.37;9.03;;;16.10;99.90;;;;;;6242297;23;20407;-85
2023/02/22 09:01:26;;;;;;;;;;;;;;;;;;;;;
2023/02/22 09:04:38;;;;;;;12.87;9.77;;;16.90;99.90;;;;;;6243636;23;20255;-87
2023/02/22 09:07:35;;;;;;;;;;;;;;;;;;;;;
2023/02/22 15:35:58;;;;;;;17.13;12.50;;;17.80;99.90;;;;;;6256413;22;20499;-84
2023/02/22 15:38:29;;;;;;;17.33;13.43;;;17.60;99.90;;;;;;6314143;22;20695;-84
2023/02/22 15:41:04;;;;;;;18.53;13.93;;;17.40;99.90;;;;;;6313756;22;20359;-83
2023/02/22 15:43:31;;;;;;;16.30;13.67;;;17.30;99.90;;;;;;6309610;22;20468;-83
2023/02/22 15:45:58;;;;;;;15.50;12.87;;;17.10;99.90;;;;;;6311722;22;20450;-88
2023/02/22 15:48:28;;;;;;;17.50;13.67;;;16.90;99.90;;;;;;6313846;22;20363;-87
2023/02/22 15:51:11;;;;;;;16.97;13.03;;;16.80;99.90;;;;;;6311482;22;20404;-85
2023/02/22 15:53:48;;;;;;;20.13;14.80;;;16.60;99.90;;;;;;6308602;22;20425;-85
2023/02/22 15:56:24;;;;;;;18.77;13.97;;;16.50;99.90;;;;;;6312171;22;20492;-86
2023/02/22 15:58:51;;;;;;;17.60;13.63;;;16.40;99.90;;;;;;6310808;22;20723;-86
2023/02/22 16:01:19;;;;;;;15.70;13.37;;;16.30;99.90;;;;;;6312477;22;20381;-85
2023/02/22 16:03:57;;;;;;;21.30;14.27;;;16.20;99.90;;;;;;6310230;22;20459;-86
2023/02/22 16:06:29;;;;;;;17.00;12.87;;;16.10;99.90;;;;;;6310589;22;20389;-86
2023/02/22 16:09:00;;;;;;;20.13;14.90;;;16.10;99.90;;;;;;6308683;22;20385;-86
2023/02/22 16:11:37;;;;;;;16.67;14.53;;;16.00;99.90;;;;;;6311530;22;20361;-85
2023/02/22 16:14:22;;;;;;;21.80;14.20;;;15.90;99.90;;;;;;6292659;22;20433;-86
2023/02/22 16:16:47;;;;;;;15.73;14.03;;;15.80;99.90;;;;;;6249927;22;20383;-86
2023/02/22 16:19:30;;;;;;;17.70;14.03;;;15.70;99.90;;;;;;6249681;22;20387;-85
2023/02/22 16:22:17;;;;;;;17.77;14.07;;;15.70;99.90;;;;;;6246838;22;20177;-85
2023/02/22 16:24:50;;;;;;;20.83;17.50;;;15.60;99.90;;;;;;6248501;23;20387;-85
2023/02/22 16:36:56;;;;;;;;;;;;;;;;;;;;;
2023/02/22 16:53:13;;;;;;;20.77;15.50;;;14.90;99.90;;;;;;6280774;22;20390;-85
2023/02/22 17:06:22;;;;;;;24.03;17.33;;;14.50;1.00;;;;;;6276379;22;20456;-85
2023/02/22 17:09:38;;;;;;;;;;;;;;;;;;;;;
2023/02/22 17:13:08;;;;;;;24.43;19.33;;;14.40;1.00;;;;;;6268070;22;20416;-85
2023/02/22 17:16:11;;;;;;;20.27;16.43;;;14.30;1.00;;;;;;6280213;22;20471;-86
2023/02/22 17:35:48;;;;;;;;;;;;;;;;;;;;;
2023/02/22 17:39:04;;;;;;;;;;;;;;;;;;;;;
2023/02/22 17:42:19;;;;;;;23.50;19.00;;;13.90;99.90;;;;;;6208467;22;20486;-86
2023/02/22 18:45:09;;;;;;;;;;;;;;;;;;;;;
2023/02/22 18:52:10;;;;;;;;;;;;;;;;;;;;;
2023/02/22 20:56:33;;;;;;;;;;;;;;;;;;;;;
